• Join FlightAware (Why Join?)
  • Login
  • US Flag 
01:54PM EDT


 

Airport Tracker/Info


-or-


 

Live Flight TrackerFlight Track Log ✈ N66518 ✈ 10-Feb-2014 ✈ KEYW - KORL

Flight Track Log - Related Links

Times and Time Zones

All times are in EST time to prevent confusion due to time zone crossing. See the N66518 flight status page for this flight to view local times or setup timezone preferences in your user account.

Time Position Orientation Groundspeed Altitude Reporting Facility
EST Latitude Longitude Course Direction KTS MPH feet Rate Location/Type
11:41AM 24.7542 -81.7503 16° North 147 169 4,800  Level Miami Center
11:42AM 24.8386 -81.7014 North  Level FlightAware Approximate
11:42AM 24.7900 -81.7381 17° North 145 167 5,600  Level Miami Center
11:43AM 24.8869 -81.6982 24° Northeast  Level FlightAware Approximate
11:43AM 24.8281 -81.7258 16° North 145 167 6,300  Level Miami Center
11:44AM 24.9312 -81.6760 24° Northeast  Level FlightAware Approximate
11:44AM 24.8617 -81.7156 16° North 140 161 7,100  Level Miami Center
11:45AM 24.9770 -81.6582 16° North  Level FlightAware Approximate
11:45AM 24.8975 -81.7033 17° North 134 154 7,900  Level Miami Center
11:46AM 24.9378 -81.6911 15° North 134 154 8,100 60 Climbing Miami Center
11:47AM 24.9819 -81.6769 16° North 145 167 8,100  Level Miami Center
11:48AM 25.0264 -81.6625 16° North 158 182 8,100 -60 Level Miami Center
11:49AM 25.0747 -81.6483 15° North 163 188 8,000 -60 Descending Miami Center
11:50AM 25.1211 -81.6342 15° North 168 193 8,000  Level Miami Center
11:51AM 25.1678 -81.6178 18° North 168 193 8,000  Level Miami Center
11:52AM 25.2142 -81.6033 16° North 168 193 8,000  Level Miami Center
11:53AM 25.2647 -81.5892 14° North 168 193 8,000  Level Miami Center
11:55AM 25.3575 -81.5561 18° North 168 193 8,000  Level Miami Center
11:56AM 25.4056 -81.5581 358° North 163 188 8,000  Level Miami Center
11:57AM 25.4511 -81.5667 350° North 163 188 8,000 -60 Level Miami Center
11:59AM 25.5444 -81.5864 349° North 163 188 7,900 -60 Descending Miami Center
12:02PM 25.6753 -81.6100 351° North 163 188 7,900  Level Miami Center
12:04PM 25.7750 -81.6300 350° North 163 188 7,900  Level Miami Center
12:06PM 25.8642 -81.6475 350° North 163 188 7,900  Level Miami Center
12:07PM 25.9097 -81.6561 350° North 163 188 7,900  Level Miami Center
12:08PM 25.9272 -81.6594 351° North  Level FlightAware Approximate
12:08PM 25.9597 -81.6650 351° North 163 188 7,900  Level Miami Center
12:09PM 26.0053 -81.6739 350° North 163 188 7,900  Level Miami Center
12:10PM 26.0508 -81.6825 350° North 163 188 7,900  Level Miami Center
12:26PM 26.8108 -81.8069 North 156 180 7,900  Level Miami Center
12:27PM 26.7874 -81.7587 North  Level FlightAware Approximate
12:27PM 26.8453 -81.8361 323° Northwest 175 201 7,900  Level Miami Center
12:29PM 26.9208 -81.8861 15° North 170 196 7,900  Level Miami Center
12:32PM 27.0511 -81.9197 17° North 159 183 7,900  Level Miami Center
12:33PM 27.0967 -81.9308 348° North 159 183 7,900  Level Miami Center
12:34PM 27.1400 -81.9444 344° North 159 183 7,900  Level Miami Center
12:35PM 27.1883 -81.9350 10° North 159 183 7,900  Level Miami Center
12:36PM 27.2347 -81.9253 11° North 164 189 7,900  Level Miami Center
12:37PM 27.2853 -81.9136 12° North 164 189 8,000  Climbing Miami Center
12:38PM 27.2759 -81.7667 17° North  Level Estimated
12:38PM 27.3336 -81.8992 15° North 164 189 8,000  Level Miami Center
12:39PM 27.3822 -81.8872 12° North 164 189 8,000  Level Miami Center
12:40PM 27.4306 -81.8731 15° North 169 194 8,000 -180 Level Miami Center
12:41PM 27.4831 -81.8614 11° North 169 194 7,700 -420 Descending Miami Center
12:42PM 27.5358 -81.8472 13° North 182 209 7,200 -600 Descending Miami Center
12:43PM 27.5906 -81.8308 15° North 188 216 6,600 -600 Descending Miami Center
12:44PM 27.6456 -81.8169 13° North 188 216 6,100 -540 Descending Miami Center
12:45PM 27.6958 -81.8050 12° North 188 216 5,600 -600 Descending Miami Center
12:46PM 27.7486 -81.7908 13° North 188 216 5,000 -300 Descending Miami Center
12:47PM 27.8033 -81.7769 13° North 181 208 5,000  Level Miami Center
12:49PM 27.9000 -81.7500 14° North 178 205 5,000  Level Orlando TRACON
12:50PM 27.9500 -81.7500 360° North 179 206 5,000  Level Orlando TRACON
12:51PM 28.0000 -81.7500 360° North 180 207 5,000  Level Orlando TRACON
12:52PM 28.0500 -81.7500 360° North 180 207 5,000  Level Orlando TRACON
12:53PM 28.1000 -81.7333 16° North 186 214 5,000  Level Orlando TRACON
12:54PM 28.1500 -81.7333 360° North 179 206 5,000 -240 Level Orlando TRACON
12:55PM 28.2000 -81.7167 16° North 182 209 4,600 -420 Descending Orlando TRACON
12:56PM 28.2500 -81.7167 360° North 189 217 4,200 -300 Descending Orlando TRACON
12:58PM 28.3500 -81.7000 90° East 176 203 3,800 -360 Descending Orlando TRACON
12:59PM 28.4000 -81.7000 360° North 181 208 3,200 -600 Descending Orlando TRACON
01:01PM 28.4500 -81.6000 60° Northeast 186 214 2,000 -420 Descending Orlando TRACON
01:02PM 28.4667 -81.5500 69° East 164 189 2,000  Level Orlando TRACON
01:04PM 28.5000 -81.4667 66° East 142 163 2,000 -120 Level Orlando TRACON
01:05PM 28.5167 -81.4333 60° Northeast 122 140 1,800 -480 Descending Orlando TRACON
01:06PM 28.5167 -81.4000 90° East 112 129 1,100 -600 Descending Orlando TRACON
01:07PM 28.5333 -81.3667 60° Northeast 105 121 600 -240 Descending Orlando TRACON
01:08PM 28.5500 -81.3333 60° Northeast 106 122 700 60 Climbing Orlando TRACON